createdAt,value
2017-06-24T00:00:34.498Z,0
2017-06-24T00:01:34.188Z,0
2017-06-24T00:02:34.797Z,0
2017-06-24T00:03:34.790Z,0
2017-06-24T00:04:35.127Z,0
2017-06-24T00:05:34.812Z,0
2017-06-24T00:06:34.810Z,0
2017-06-24T00:07:34.459Z,0
2017-06-24T00:08:34.453Z,0
2017-06-24T00:09:35.098Z,0
2017-06-24T00:10:34.451Z,0
2017-06-24T00:11:34.481Z,0
2017-06-24T00:12:35.097Z,0
2017-06-24T00:13:34.756Z,0
2017-06-24T00:14:34.445Z,0
2017-06-24T00:15:34.122Z,0
2017-06-24T00:16:34.440Z,0
2017-06-24T00:17:34.768Z,0
2017-06-24T00:18:34.729Z,0
2017-06-24T00:19:34.404Z,0
2017-06-24T00:20:34.722Z,0
2017-06-24T00:21:35.045Z,0
2017-06-24T00:22:35.040Z,0
2017-06-24T00:23:34.386Z,0
2017-06-24T00:24:34.712Z,0
2017-06-24T00:25:34.703Z,0
2017-06-24T00:26:34.756Z,0
2017-06-24T00:27:35.006Z,0
2017-06-24T00:28:35.011Z,0
2017-06-24T00:29:34.358Z,0
2017-06-24T00:30:34.708Z,0
2017-06-24T00:31:34.351Z,0
2017-06-24T00:32:34.679Z,0
2017-06-24T00:33:34.351Z,0
2017-06-24T00:34:34.671Z,0
2017-06-24T00:35:34.982Z,0
2017-06-24T00:36:34.655Z,0
2017-06-24T00:37:34.648Z,0
2017-06-24T00:38:34.658Z,0
2017-06-24T00:39:34.661Z,0
2017-06-24T00:40:34.651Z,0
2017-06-24T00:41:33.987Z,0
2017-06-24T00:42:34.645Z,0
2017-06-24T00:43:33.987Z,0
2017-06-24T00:44:34.297Z,0
2017-06-24T00:45:34.612Z,0
2017-06-24T00:46:34.620Z,0
2017-06-24T00:47:34.945Z,0
2017-06-24T00:48:34.291Z,0
2017-06-24T00:49:34.294Z,0
2017-06-24T00:50:34.607Z,0
2017-06-24T00:51:34.589Z,0
2017-06-24T00:52:34.598Z,0
2017-06-24T00:53:33.950Z,0
2017-06-24T00:54:34.608Z,0
2017-06-24T00:55:34.570Z,0
2017-06-24T00:56:34.253Z,0
2017-06-24T00:57:34.881Z,0
2017-06-24T00:58:34.558Z,0
2017-06-24T00:59:34.548Z,0
2017-06-24T01:00:34.865Z,0
2017-06-24T01:01:33.945Z,0
2017-06-24T01:02:34.218Z,0
2017-06-24T01:03:34.227Z,0
2017-06-24T01:04:34.209Z,0
2017-06-24T01:05:34.846Z,0
2017-06-24T01:06:34.212Z,0
2017-06-24T01:07:34.527Z,0
2017-06-24T01:08:34.840Z,0
2017-06-24T01:09:34.191Z,0
2017-06-24T01:10:34.189Z,0
2017-06-24T01:11:34.516Z,0
2017-06-24T01:12:34.172Z,0
2017-06-24T01:13:34.486Z,0
2017-06-24T01:14:34.493Z,0
2017-06-24T01:15:34.226Z,0
2017-06-24T01:16:34.506Z,0
2017-06-24T01:17:33.827Z,0
2017-06-24T01:18:34.149Z,0
2017-06-24T01:19:34.472Z,0
2017-06-24T01:20:34.150Z,0
2017-06-24T01:21:34.133Z,0
2017-06-24T01:22:33.810Z,0
2017-06-24T01:23:34.129Z,0
2017-06-24T01:24:34.141Z,0
2017-06-24T01:25:34.441Z,0
2017-06-24T01:26:34.780Z,0
2017-06-24T01:27:34.108Z,0
2017-06-24T01:28:34.121Z,0
2017-06-24T01:29:34.746Z,0
2017-06-24T01:30:34.424Z,0
2017-06-24T01:31:34.415Z,0
2017-06-24T01:32:34.731Z,0
2017-06-24T01:33:34.787Z,0
2017-06-24T01:34:34.396Z,0
2017-06-24T01:35:33.751Z,0
2017-06-24T01:36:34.084Z,0
2017-06-24T01:37:34.739Z,0
2017-06-24T01:38:34.398Z,0
2017-06-24T01:39:34.061Z,0
2017-06-24T01:40:34.057Z,0
2017-06-24T01:41:34.371Z,0
2017-06-24T01:42:34.710Z,0
2017-06-24T01:43:34.700Z,0
2017-06-24T01:44:34.363Z,0
2017-06-24T01:45:34.030Z,0
2017-06-24T01:46:34.690Z,0
2017-06-24T01:47:34.358Z,0
2017-06-24T01:48:34.662Z,0
2017-06-24T01:49:34.340Z,0
2017-06-24T01:50:34.016Z,0
2017-06-24T01:51:34.665Z,0
2017-06-24T01:52:34.338Z,0
2017-06-24T01:53:34.363Z,0
2017-06-24T01:54:33.997Z,0
2017-06-24T01:55:33.999Z,0
2017-06-24T01:56:33.679Z,0
2017-06-24T01:57:34.299Z,0
2017-06-24T01:58:33.974Z,0
2017-06-24T01:59:33.986Z,0
2017-06-24T02:00:34.307Z,0
2017-06-24T02:01:34.292Z,0
2017-06-24T02:02:33.646Z,0
2017-06-24T02:03:34.279Z,0
2017-06-24T02:04:34.275Z,0
2017-06-24T02:05:34.284Z,0
2017-06-24T02:06:34.260Z,0
2017-06-24T02:07:34.257Z,0
2017-06-24T02:08:34.575Z,0
2017-06-24T02:09:33.930Z,0
2017-06-24T02:10:34.265Z,0
2017-06-24T02:11:34.289Z,0
2017-06-24T02:12:34.236Z,0
2017-06-24T02:13:33.929Z,0
2017-06-24T02:14:33.597Z,0
2017-06-24T02:15:34.570Z,0
2017-06-24T02:16:34.545Z,0
2017-06-24T02:17:33.898Z,0
2017-06-24T02:18:34.231Z,0
2017-06-24T02:19:34.531Z,0
2017-06-24T02:20:33.927Z,0
2017-06-24T02:21:33.884Z,0
2017-06-24T02:22:34.206Z,0
2017-06-24T02:23:34.228Z,0
2017-06-24T02:24:34.187Z,0
2017-06-24T02:25:34.503Z,0
2017-06-24T02:26:34.193Z,0
2017-06-24T02:27:34.498Z,0
2017-06-24T02:28:34.174Z,0
2017-06-24T02:29:34.182Z,0
2017-06-24T02:30:34.496Z,0
2017-06-24T02:31:34.185Z,0
2017-06-24T02:32:33.839Z,0
2017-06-24T02:33:34.476Z,0
2017-06-24T02:34:33.837Z,0
2017-06-24T02:35:34.475Z,0
2017-06-24T02:36:33.499Z,0
2017-06-24T02:37:34.157Z,0
2017-06-24T02:38:34.137Z,0
2017-06-24T02:39:34.454Z,0
2017-06-24T02:40:34.446Z,0
2017-06-24T02:41:34.454Z,0
2017-06-24T02:42:34.123Z,0
2017-06-24T02:43:34.442Z,0
2017-06-24T02:44:34.123Z,0
2017-06-24T02:45:34.128Z,0
2017-06-24T02:46:33.782Z,0
2017-06-24T02:47:33.814Z,0
2017-06-24T02:48:33.772Z,0
2017-06-24T02:49:33.794Z,0
2017-06-24T02:50:34.109Z,0
2017-06-24T02:51:34.095Z,5
2017-06-24T02:52:34.115Z,5
2017-06-24T02:53:34.093Z,5
2017-06-24T02:54:34.068Z,5
2017-06-24T02:55:33.747Z,5
2017-06-24T02:56:33.743Z,5
2017-06-24T02:57:34.083Z,5
2017-06-24T02:58:34.378Z,10
2017-06-24T02:59:33.731Z,10
2017-06-24T03:00:33.745Z,10
2017-06-24T03:01:34.380Z,10
2017-06-24T03:02:33.755Z,10
2017-06-24T03:03:34.359Z,10
2017-06-24T03:04:34.363Z,10
2017-06-24T03:05:34.055Z,15
2017-06-24T03:06:34.343Z,15
2017-06-24T03:07:33.723Z,15
2017-06-24T03:08:34.019Z,15
2017-06-24T03:09:34.022Z,15
2017-06-24T03:10:34.033Z,15
2017-06-24T03:11:34.330Z,20
2017-06-24T03:12:34.008Z,20
2017-06-24T03:13:34.351Z,20
2017-06-24T03:14:33.997Z,20
2017-06-24T03:15:33.679Z,20
2017-06-24T03:16:33.720Z,25
2017-06-24T03:17:34.323Z,25
2017-06-24T03:18:33.657Z,25
2017-06-24T03:19:33.649Z,25
2017-06-24T03:20:34.310Z,30
2017-06-24T03:21:33.960Z,30
2017-06-24T03:22:33.639Z,30
2017-06-24T03:23:33.963Z,30
2017-06-24T03:24:33.948Z,35
2017-06-24T03:25:33.627Z,35
2017-06-24T03:26:34.269Z,35
2017-06-24T03:27:33.957Z,35
2017-06-24T03:28:34.258Z,35
2017-06-24T03:29:33.933Z,40
2017-06-24T03:30:34.248Z,40
2017-06-24T03:31:33.939Z,40
2017-06-24T03:32:33.593Z,40
2017-06-24T03:33:33.287Z,45
2017-06-24T03:34:34.273Z,45
2017-06-24T03:35:34.220Z,45
2017-06-24T03:36:34.240Z,45
2017-06-24T03:37:33.579Z,45
2017-06-24T03:38:33.888Z,50
2017-06-24T03:39:33.922Z,50
2017-06-24T03:40:33.242Z,50
2017-06-24T03:41:33.881Z,50
2017-06-24T03:42:33.556Z,50
2017-06-24T03:43:33.882Z,55
2017-06-24T03:44:33.220Z,55
2017-06-24T03:45:33.904Z,55
2017-06-24T03:46:33.859Z,55
2017-06-24T03:47:34.183Z,55
2017-06-24T03:48:33.845Z,55
2017-06-24T03:49:33.842Z,60
2017-06-24T03:50:34.174Z,60
2017-06-24T03:51:34.170Z,60
2017-06-24T03:52:33.520Z,60
2017-06-24T03:53:33.189Z,60
2017-06-24T03:54:33.180Z,65
2017-06-24T03:55:33.818Z,65
2017-06-24T03:56:33.830Z,65
2017-06-24T03:57:33.486Z,65
2017-06-24T03:58:33.807Z,65
2017-06-24T03:59:33.829Z,65
2017-06-24T04:00:33.799Z,65
2017-06-24T04:01:33.794Z,65
2017-06-24T04:02:33.469Z,65
2017-06-24T04:03:33.779Z,65
2017-06-24T04:04:33.458Z,65
2017-06-24T04:05:32.900Z,65
2017-06-24T04:06:33.790Z,65
2017-06-24T04:07:33.467Z,70
2017-06-24T04:08:33.759Z,70
2017-06-24T04:09:33.444Z,70
2017-06-24T04:10:34.076Z,75
2017-06-24T04:11:33.790Z,75
2017-06-24T04:12:33.429Z,80
2017-06-24T04:13:33.745Z,85
2017-06-24T04:14:33.745Z,90
2017-06-24T04:15:33.743Z,90
2017-06-24T04:16:33.744Z,90
2017-06-24T04:17:33.727Z,95
2017-06-24T04:18:34.036Z,95
2017-06-24T04:19:33.397Z,95
2017-06-24T04:20:33.751Z,95
2017-06-24T04:21:33.708Z,100
2017-06-24T04:22:33.703Z,100
2017-06-24T04:23:33.699Z,100
2017-06-24T04:24:33.068Z,105
2017-06-24T04:25:33.367Z,105
2017-06-24T04:26:33.706Z,105
2017-06-24T04:27:33.059Z,105
2017-06-24T04:28:33.677Z,110
2017-06-24T04:29:33.676Z,110
2017-06-24T04:30:33.381Z,115
2017-06-24T04:31:34.000Z,120
2017-06-24T04:32:33.022Z,130
2017-06-24T04:33:33.653Z,140
2017-06-24T04:34:33.705Z,145
2017-06-24T04:35:33.344Z,150
2017-06-24T04:36:33.645Z,150
2017-06-24T04:37:33.663Z,150
2017-06-24T04:38:33.313Z,150
2017-06-24T04:39:33.003Z,155
2017-06-24T04:40:33.638Z,150
2017-06-24T04:41:33.310Z,140
2017-06-24T04:42:33.947Z,130
2017-06-24T04:43:32.980Z,125
2017-06-24T04:44:33.298Z,120
2017-06-24T04:45:33.607Z,120
2017-06-24T04:46:33.327Z,120
2017-06-24T04:47:33.610Z,120
2017-06-24T04:48:33.298Z,120
2017-06-24T04:49:33.624Z,120
2017-06-24T04:50:33.596Z,120
2017-06-24T04:51:33.591Z,125
2017-06-24T04:52:33.287Z,125
2017-06-24T04:53:33.904Z,125
2017-06-24T04:54:33.903Z,125
2017-06-24T04:55:32.930Z,135
2017-06-24T04:56:33.568Z,135
2017-06-24T04:57:33.574Z,135
2017-06-24T04:58:33.878Z,135
2017-06-24T04:59:33.568Z,135
2017-06-24T05:00:33.236Z,135
2017-06-24T05:01:33.570Z,135
2017-06-24T05:02:33.546Z,135
2017-06-24T05:03:33.560Z,135
2017-06-24T05:04:33.259Z,140
2017-06-24T05:05:33.873Z,140
2017-06-24T05:06:33.230Z,140
2017-06-24T05:07:33.531Z,140
2017-06-24T05:08:33.535Z,140
2017-06-24T05:09:33.207Z,140
2017-06-24T05:10:33.223Z,140
2017-06-24T05:11:33.549Z,140
2017-06-24T05:12:33.195Z,140
2017-06-24T05:13:33.532Z,140
2017-06-24T05:14:33.543Z,140
2017-06-24T05:15:33.510Z,140
2017-06-24T05:16:33.187Z,140
2017-06-24T05:17:33.501Z,140
2017-06-24T05:18:33.501Z,140
2017-06-24T05:19:33.501Z,140
2017-06-24T05:20:33.817Z,145
2017-06-24T05:21:33.808Z,145
2017-06-24T05:22:33.178Z,145
2017-06-24T05:23:33.830Z,145
2017-06-24T05:24:33.804Z,145
2017-06-24T05:25:33.160Z,150
2017-06-24T05:26:33.516Z,150
2017-06-24T05:27:33.475Z,150
2017-06-24T05:28:33.154Z,155
2017-06-24T05:29:33.465Z,155
2017-06-24T05:30:33.512Z,155
2017-06-24T05:31:33.139Z,155
2017-06-24T05:32:33.143Z,160
2017-06-24T05:33:33.455Z,160
2017-06-24T05:34:33.460Z,170
2017-06-24T05:35:33.450Z,165
2017-06-24T05:36:33.769Z,165
2017-06-24T05:37:33.164Z,170
2017-06-24T05:38:33.442Z,175
2017-06-24T05:39:33.127Z,175
2017-06-24T05:40:33.114Z,165
2017-06-24T05:41:33.433Z,165
2017-06-24T05:42:33.112Z,165
2017-06-24T05:43:33.107Z,170
2017-06-24T05:44:33.424Z,175
2017-06-24T05:45:33.423Z,180
2017-06-24T05:46:32.800Z,185
2017-06-24T05:47:32.778Z,180
2017-06-24T05:48:33.433Z,170
2017-06-24T05:49:33.097Z,170
2017-06-24T05:50:33.733Z,170
2017-06-24T05:51:32.770Z,170
2017-06-24T05:52:33.744Z,170
2017-06-24T05:53:33.085Z,170
2017-06-24T05:54:33.083Z,170
2017-06-24T05:55:33.730Z,175
2017-06-24T05:56:33.412Z,175
2017-06-24T05:57:33.404Z,175
2017-06-24T05:58:33.075Z,180
2017-06-24T05:59:33.079Z,175
2017-06-24T06:00:33.097Z,175
2017-06-24T06:01:33.708Z,175
2017-06-24T06:02:33.063Z,175
2017-06-24T06:03:33.390Z,180
2017-06-24T06:04:33.385Z,180
2017-06-24T06:05:33.379Z,180
2017-06-24T06:06:32.740Z,180
2017-06-24T06:07:33.735Z,180
2017-06-24T06:08:33.385Z,185
2017-06-24T06:09:33.397Z,190
2017-06-24T06:10:33.382Z,200
2017-06-24T06:11:33.061Z,205
2017-06-24T06:12:33.391Z,200
2017-06-24T06:13:33.061Z,200
2017-06-24T06:14:32.399Z,195
2017-06-24T06:15:33.056Z,200
2017-06-24T06:16:32.734Z,200
2017-06-24T06:17:33.724Z,205
2017-06-24T06:18:33.063Z,210
2017-06-24T06:19:32.710Z,215
2017-06-24T06:20:33.039Z,225
2017-06-24T06:21:33.361Z,235
2017-06-24T06:22:33.030Z,250
2017-06-24T06:23:33.353Z,260
2017-06-24T06:24:33.039Z,290
2017-06-24T06:25:33.047Z,345
2017-06-24T06:26:33.035Z,395
2017-06-24T06:27:33.680Z,425
2017-06-24T06:28:33.030Z,450
2017-06-24T06:29:33.023Z,425
2017-06-24T06:30:33.020Z,440
2017-06-24T06:31:32.709Z,450
2017-06-24T06:32:32.834Z,420
2017-06-24T06:33:33.347Z,415
2017-06-24T06:34:33.348Z,385
2017-06-24T06:35:33.346Z,400
2017-06-24T06:36:33.679Z,400
2017-06-24T06:37:33.335Z,425
2017-06-24T06:38:33.378Z,410
2017-06-24T06:39:33.340Z,505
2017-06-24T06:40:33.657Z,610
2017-06-24T06:41:33.021Z,520
2017-06-24T06:42:33.351Z,625
2017-06-24T06:43:33.334Z,520
2017-06-24T06:44:33.333Z,475
2017-06-24T06:45:33.348Z,505
2017-06-24T06:46:33.353Z,605
2017-06-24T06:47:33.018Z,590
2017-06-24T06:48:33.012Z,850
2017-06-24T06:49:33.333Z,465
2017-06-24T06:50:32.695Z,475
2017-06-24T06:51:33.343Z,410
2017-06-24T06:52:33.357Z,355
2017-06-24T06:53:33.669Z,345
2017-06-24T06:54:33.052Z,400
2017-06-24T06:55:33.216Z,450
2017-06-24T06:56:33.017Z,475
2017-06-24T06:57:32.703Z,560
2017-06-24T06:58:33.375Z,490
2017-06-24T06:59:33.034Z,460
2017-06-24T07:00:33.681Z,565
2017-06-24T07:01:33.354Z,625
2017-06-24T07:02:33.373Z,780
2017-06-24T07:03:33.351Z,795
2017-06-24T07:04:33.679Z,740
2017-06-24T07:05:33.679Z,685
2017-06-24T07:06:33.354Z,660
2017-06-24T07:07:32.718Z,685
2017-06-24T07:08:33.365Z,725
2017-06-24T07:09:32.723Z,710
2017-06-24T07:10:32.742Z,495
2017-06-24T07:11:33.387Z,500
2017-06-24T07:12:32.738Z,585
2017-06-24T07:13:33.380Z,645
2017-06-24T07:14:33.397Z,635
2017-06-24T07:15:33.071Z,715
2017-06-24T07:16:33.403Z,490
2017-06-24T07:17:33.077Z,745
2017-06-24T07:18:33.743Z,700
2017-06-24T07:19:33.406Z,430
2017-06-24T07:20:33.089Z,685
2017-06-24T07:21:33.755Z,670
2017-06-24T07:22:33.441Z,700
2017-06-24T07:23:33.112Z,710
2017-06-24T07:24:32.476Z,670
2017-06-24T07:25:33.436Z,380
2017-06-24T07:26:33.151Z,720
2017-06-24T07:27:33.790Z,660
2017-06-24T07:28:33.140Z,585
2017-06-24T07:29:33.158Z,435
2017-06-24T07:30:33.866Z,395
2017-06-24T07:31:33.175Z,715
2017-06-24T07:32:33.802Z,735
2017-06-24T07:33:32.869Z,500
2017-06-24T07:34:33.488Z,395
2017-06-24T07:35:33.842Z,685
2017-06-24T07:36:33.206Z,410
2017-06-24T07:37:33.527Z,765
2017-06-24T07:38:33.844Z,460
2017-06-24T07:39:33.522Z,455
2017-06-24T07:40:33.537Z,725
2017-06-24T07:41:33.538Z,490
2017-06-24T07:42:33.269Z,465
2017-06-24T07:43:33.241Z,815
2017-06-24T07:44:33.267Z,845
2017-06-24T07:45:33.564Z,650
2017-06-24T07:46:33.584Z,455
2017-06-24T07:47:32.926Z,710
2017-06-24T07:48:33.585Z,730
2017-06-24T07:49:33.253Z,725
2017-06-24T07:50:33.934Z,760
2017-06-24T07:51:33.598Z,730
2017-06-24T07:52:36.850Z,705
2017-06-24T07:53:32.959Z,700
2017-06-24T07:54:33.927Z,645
2017-06-24T07:55:33.947Z,580
2017-06-24T07:56:33.338Z,495
2017-06-24T07:57:33.622Z,420
2017-06-24T07:58:33.632Z,380
2017-06-24T07:59:33.307Z,320
2017-06-24T08:00:33.644Z,380
2017-06-24T08:01:33.975Z,310
2017-06-24T08:02:33.654Z,295
2017-06-24T08:03:33.347Z,330
2017-06-24T08:04:33.336Z,340
2017-06-24T08:05:34.024Z,295
2017-06-24T08:06:33.672Z,260
2017-06-24T08:07:34.017Z,305
2017-06-24T08:08:33.675Z,280
2017-06-24T08:09:33.059Z,290
2017-06-24T08:10:33.691Z,305
2017-06-24T08:11:33.045Z,310
2017-06-24T08:12:33.727Z,235
2017-06-24T08:13:33.705Z,290
2017-06-24T08:14:33.399Z,280
2017-06-24T08:15:33.408Z,255
2017-06-24T08:16:33.739Z,215
2017-06-24T08:17:33.712Z,240
2017-06-24T08:18:33.422Z,225
2017-06-24T08:19:33.118Z,285
2017-06-24T08:20:33.737Z,280
2017-06-24T08:21:33.741Z,345
2017-06-24T08:22:33.422Z,340
2017-06-24T08:23:34.063Z,310
2017-06-24T08:24:33.416Z,275
2017-06-24T08:25:33.742Z,285
2017-06-24T08:26:33.741Z,295
2017-06-24T08:27:33.099Z,340
2017-06-24T08:28:33.113Z,360
2017-06-24T08:29:33.753Z,425
2017-06-24T08:30:33.785Z,430
2017-06-24T08:31:33.432Z,445
2017-06-24T08:32:33.453Z,415
2017-06-24T08:33:33.757Z,420
2017-06-24T08:34:33.459Z,375
2017-06-24T08:35:33.444Z,385
2017-06-24T08:36:33.467Z,350
2017-06-24T08:37:33.137Z,385
2017-06-24T08:38:34.141Z,425
2017-06-24T08:39:33.793Z,450
2017-06-24T08:40:34.101Z,485
2017-06-24T08:41:34.119Z,460
2017-06-24T08:42:33.793Z,385
2017-06-24T08:43:33.487Z,380
2017-06-24T08:44:33.468Z,420
2017-06-24T08:45:34.115Z,370
2017-06-24T08:46:34.120Z,360
2017-06-24T08:47:33.179Z,310
2017-06-24T08:48:33.804Z,365
2017-06-24T08:49:32.840Z,415
2017-06-24T08:50:33.848Z,410
2017-06-24T08:51:33.826Z,435
2017-06-24T08:52:34.141Z,360
2017-06-24T08:53:34.166Z,310
2017-06-24T08:54:33.499Z,305
2017-06-24T08:55:34.180Z,335
2017-06-24T08:56:33.509Z,270
2017-06-24T08:57:34.149Z,250
2017-06-24T08:58:32.868Z,250
2017-06-24T08:59:34.174Z,255
2017-06-24T09:00:34.180Z,295
2017-06-24T09:01:33.849Z,350
2017-06-24T09:02:33.535Z,350
2017-06-24T09:03:34.183Z,330
2017-06-24T09:04:33.869Z,280
2017-06-24T09:05:33.913Z,245
2017-06-24T09:06:33.888Z,245
2017-06-24T09:07:33.923Z,245
2017-06-24T09:08:33.860Z,240
2017-06-24T09:09:33.888Z,240
2017-06-24T09:10:34.194Z,245
2017-06-24T09:11:33.554Z,230
2017-06-24T09:12:33.888Z,230
2017-06-24T09:13:33.595Z,225
2017-06-24T09:14:33.557Z,220
2017-06-24T09:15:33.577Z,215
2017-06-24T09:16:33.265Z,200
2017-06-24T09:17:34.211Z,200
2017-06-24T09:18:34.218Z,200
2017-06-24T09:19:34.216Z,205
2017-06-24T09:20:34.223Z,220
2017-06-24T09:21:33.904Z,230
2017-06-24T09:22:33.585Z,220
2017-06-24T09:23:33.932Z,225
2017-06-24T09:24:34.253Z,225
2017-06-24T09:25:33.912Z,215
2017-06-24T09:26:33.913Z,195
2017-06-24T09:27:33.633Z,185
2017-06-24T09:28:32.955Z,175
2017-06-24T09:29:33.601Z,165
2017-06-24T09:30:34.248Z,160
2017-06-24T09:31:33.610Z,170
2017-06-24T09:32:33.613Z,165
2017-06-24T09:33:33.612Z,170
2017-06-24T09:34:34.255Z,165
2017-06-24T09:35:34.295Z,170
2017-06-24T09:36:33.941Z,170
2017-06-24T09:37:34.367Z,170
2017-06-24T09:38:33.943Z,170
2017-06-24T09:39:34.270Z,175
2017-06-24T09:40:33.944Z,170
2017-06-24T09:41:34.282Z,170
2017-06-24T09:42:34.274Z,165
2017-06-24T09:43:33.633Z,170
2017-06-24T09:44:33.315Z,170
2017-06-24T09:45:33.654Z,170
2017-06-24T09:46:33.956Z,170
2017-06-24T09:47:33.663Z,170
2017-06-24T09:48:34.287Z,170
2017-06-24T09:49:33.964Z,175
2017-06-24T09:50:34.289Z,175
2017-06-24T09:51:33.666Z,175
2017-06-24T09:52:33.330Z,175
2017-06-24T09:53:34.311Z,175
2017-06-24T09:54:33.360Z,180
2017-06-24T09:55:34.011Z,170
2017-06-24T09:56:34.001Z,170
2017-06-24T09:57:33.988Z,170
2017-06-24T09:58:33.685Z,170
2017-06-24T09:59:33.669Z,170
2017-06-24T10:00:33.992Z,170
2017-06-24T10:01:33.994Z,175
2017-06-24T10:02:34.008Z,165
2017-06-24T10:03:34.329Z,170
2017-06-24T10:04:34.021Z,150
2017-06-24T10:05:34.003Z,195
2017-06-24T10:06:34.017Z,220
2017-06-24T10:07:33.682Z,190
2017-06-24T10:08:34.333Z,180
2017-06-24T10:09:34.007Z,170
2017-06-24T10:10:34.013Z,170
2017-06-24T10:11:34.045Z,165
2017-06-24T10:12:33.709Z,165
2017-06-24T10:13:34.036Z,160
2017-06-24T10:14:34.042Z,160
2017-06-24T10:15:34.044Z,160
2017-06-24T10:16:33.730Z,160
2017-06-24T10:17:33.705Z,160
2017-06-24T10:18:34.058Z,155
2017-06-24T10:19:33.725Z,160
2017-06-24T10:20:33.707Z,160
2017-06-24T10:21:34.357Z,160
2017-06-24T10:22:34.041Z,160
2017-06-24T10:23:34.036Z,155
2017-06-24T10:24:34.364Z,160
2017-06-24T10:25:34.058Z,160
2017-06-24T10:26:33.740Z,160
2017-06-24T10:27:34.047Z,160
2017-06-24T10:28:34.058Z,160
2017-06-24T10:29:34.064Z,160
2017-06-24T10:30:33.752Z,160
2017-06-24T10:31:33.411Z,160
2017-06-24T10:32:34.405Z,165
2017-06-24T10:33:33.742Z,165
2017-06-24T10:34:33.416Z,165
2017-06-24T10:35:33.436Z,165
2017-06-24T10:36:34.067Z,165
2017-06-24T10:37:34.074Z,165
2017-06-24T10:38:33.744Z,165
2017-06-24T10:39:33.782Z,155
2017-06-24T10:40:33.772Z,150
2017-06-24T10:41:33.437Z,150
2017-06-24T10:42:34.097Z,150
2017-06-24T10:43:33.757Z,155
2017-06-24T10:44:33.773Z,150
2017-06-24T10:45:33.770Z,155
2017-06-24T10:46:33.767Z,155
2017-06-24T10:47:33.763Z,155
2017-06-24T10:48:33.445Z,155
2017-06-24T10:49:33.769Z,160
2017-06-24T10:50:34.097Z,155
2017-06-24T10:51:34.439Z,155
2017-06-24T10:52:33.455Z,155
2017-06-24T10:53:34.103Z,160
2017-06-24T10:54:33.482Z,170
2017-06-24T10:55:34.435Z,170
2017-06-24T10:56:34.114Z,155
2017-06-24T10:57:34.475Z,155
2017-06-24T10:58:34.118Z,155
2017-06-24T10:59:34.432Z,155
2017-06-24T11:00:34.439Z,150
2017-06-24T11:01:33.832Z,150
2017-06-24T11:02:33.796Z,150
2017-06-24T11:03:34.166Z,150
2017-06-24T11:04:34.124Z,150
2017-06-24T11:05:34.124Z,150
2017-06-24T11:06:34.453Z,150
2017-06-24T11:07:34.144Z,150
2017-06-24T11:08:33.828Z,145
2017-06-24T11:09:34.159Z,145
2017-06-24T11:10:34.459Z,145
2017-06-24T11:11:34.465Z,145
2017-06-24T11:12:33.849Z,150
2017-06-24T11:13:33.835Z,155
2017-06-24T11:14:33.828Z,155
2017-06-24T11:15:34.159Z,155
2017-06-24T11:16:34.154Z,160
2017-06-24T11:17:33.531Z,155
2017-06-24T11:18:34.479Z,155
2017-06-24T11:19:33.201Z,160
2017-06-24T11:20:34.157Z,155
2017-06-24T11:21:33.863Z,150
2017-06-24T11:22:34.190Z,150
2017-06-24T11:23:34.173Z,150
2017-06-24T11:24:33.842Z,150
2017-06-24T11:25:33.863Z,150
2017-06-24T11:26:33.846Z,150
2017-06-24T11:27:34.176Z,150
2017-06-24T11:28:34.178Z,145
2017-06-24T11:29:34.500Z,145
2017-06-24T11:30:34.502Z,145
2017-06-24T11:31:34.198Z,145
2017-06-24T11:32:33.883Z,145
2017-06-24T11:33:34.202Z,145
2017-06-24T11:34:34.507Z,145
2017-06-24T11:35:33.556Z,140
2017-06-24T11:36:33.552Z,145
2017-06-24T11:37:34.554Z,145
2017-06-24T11:38:34.194Z,145
2017-06-24T11:39:34.525Z,145
2017-06-24T11:40:33.878Z,145
2017-06-24T11:41:33.586Z,150
2017-06-24T11:42:34.209Z,145
2017-06-24T11:43:34.525Z,145
2017-06-24T11:44:33.766Z,145
2017-06-24T11:45:34.555Z,145
2017-06-24T11:46:34.231Z,145
2017-06-24T11:47:34.219Z,145
2017-06-24T11:48:33.902Z,145
2017-06-24T11:49:33.904Z,145
2017-06-24T11:50:34.234Z,145
2017-06-24T11:51:34.223Z,150
2017-06-24T11:52:33.954Z,150
2017-06-24T11:53:34.236Z,150
2017-06-24T11:54:34.551Z,150
2017-06-24T11:55:33.910Z,145
2017-06-24T11:56:34.232Z,145
2017-06-24T11:57:34.580Z,145
2017-06-24T11:58:34.558Z,145
2017-06-24T11:59:33.916Z,150
2017-06-24T12:00:34.266Z,145
2017-06-24T12:01:34.264Z,150
2017-06-24T12:02:34.481Z,150
2017-06-24T12:03:34.566Z,150
2017-06-24T12:04:33.936Z,145
2017-06-24T12:05:33.610Z,145
2017-06-24T12:06:34.284Z,135
2017-06-24T12:07:33.938Z,145
2017-06-24T12:08:33.955Z,150
2017-06-24T12:09:34.268Z,150
2017-06-24T12:10:33.923Z,145
2017-06-24T12:11:34.273Z,150
2017-06-24T12:12:33.960Z,150
2017-06-24T12:13:33.969Z,150
2017-06-24T12:14:34.600Z,150
2017-06-24T12:15:33.953Z,150
2017-06-24T12:16:34.271Z,150
2017-06-24T12:17:33.977Z,150
2017-06-24T12:18:33.953Z,150
2017-06-24T12:19:34.612Z,150
2017-06-24T12:20:34.343Z,150
2017-06-24T12:21:34.611Z,140
2017-06-24T12:22:33.989Z,145
2017-06-24T12:23:33.970Z,150
2017-06-24T12:24:33.984Z,155
2017-06-24T12:25:33.989Z,150
2017-06-24T12:26:33.969Z,150
2017-06-24T12:27:34.617Z,150
2017-06-24T12:28:34.621Z,150
2017-06-24T12:29:34.297Z,150
2017-06-24T12:30:34.316Z,150
2017-06-24T12:31:33.985Z,135
2017-06-24T12:32:33.712Z,155
2017-06-24T12:33:33.989Z,155
2017-06-24T12:34:34.628Z,150
2017-06-24T12:35:34.317Z,150
2017-06-24T12:36:34.315Z,150
2017-06-24T12:37:33.677Z,150
2017-06-24T12:38:34.001Z,150
2017-06-24T12:39:33.998Z,150
2017-06-24T12:40:34.323Z,145
2017-06-24T12:41:34.324Z,145
2017-06-24T12:42:34.652Z,145
2017-06-24T12:43:34.659Z,150
2017-06-24T12:44:34.008Z,150
2017-06-24T12:45:34.373Z,150
2017-06-24T12:46:34.338Z,150
2017-06-24T12:47:34.666Z,150
2017-06-24T12:48:33.695Z,150
2017-06-24T12:49:34.367Z,150
2017-06-24T12:50:34.391Z,150
2017-06-24T12:51:34.028Z,150
2017-06-24T12:52:34.373Z,150
2017-06-24T12:53:34.032Z,150
2017-06-24T12:54:33.716Z,125
2017-06-24T12:55:34.049Z,125
2017-06-24T12:56:34.700Z,150
2017-06-24T12:57:34.060Z,150
2017-06-24T12:58:34.053Z,150
2017-06-24T12:59:34.561Z,150
2017-06-24T13:00:33.734Z,150
2017-06-24T13:01:34.690Z,150
2017-06-24T13:02:34.370Z,150
2017-06-24T13:03:34.383Z,150
2017-06-24T13:04:34.398Z,150
2017-06-24T13:05:34.393Z,160
2017-06-24T13:06:34.698Z,155
2017-06-24T13:07:34.391Z,150
2017-06-24T13:08:34.397Z,150
2017-06-24T13:09:34.387Z,150
2017-06-24T13:10:34.082Z,150
2017-06-24T13:11:34.392Z,150
2017-06-24T13:12:34.091Z,150
2017-06-24T13:13:34.426Z,150
2017-06-24T13:14:33.444Z,150
2017-06-24T13:15:34.079Z,150
2017-06-24T13:16:34.083Z,150
2017-06-24T13:17:34.408Z,150
2017-06-24T13:18:34.090Z,150
2017-06-24T13:19:33.830Z,150
2017-06-24T13:20:34.440Z,150
2017-06-24T13:21:34.439Z,150
2017-06-24T13:22:34.090Z,155
2017-06-24T13:23:34.098Z,150
2017-06-24T13:24:34.434Z,150
2017-06-24T13:25:34.458Z,150
2017-06-24T13:26:34.426Z,150
2017-06-24T13:27:34.102Z,145
2017-06-24T13:28:34.442Z,145
2017-06-24T13:29:34.436Z,145
2017-06-24T13:30:34.454Z,145
2017-06-24T13:31:34.440Z,145
2017-06-24T13:32:34.477Z,150
2017-06-24T13:33:34.119Z,150
2017-06-24T13:34:34.451Z,150
2017-06-24T13:35:34.471Z,150
2017-06-24T13:36:34.506Z,150
2017-06-24T13:37:34.770Z,150
2017-06-24T13:38:34.774Z,145
2017-06-24T13:39:34.129Z,145
2017-06-24T13:40:34.460Z,145
2017-06-24T13:41:34.794Z,145
2017-06-24T13:42:34.465Z,145
2017-06-24T13:43:33.825Z,145
2017-06-24T13:44:34.161Z,145
2017-06-24T13:45:34.152Z,150
2017-06-24T13:46:34.156Z,150
2017-06-24T13:47:34.211Z,150
2017-06-24T13:48:34.493Z,150
2017-06-24T13:49:34.526Z,150
2017-06-24T13:50:34.506Z,150
2017-06-24T13:51:34.487Z,145
2017-06-24T13:52:34.826Z,145
2017-06-24T13:53:34.169Z,145
2017-06-24T13:54:34.829Z,145
2017-06-24T13:55:34.174Z,145
2017-06-24T13:56:34.187Z,145
2017-06-24T13:57:34.177Z,150
2017-06-24T13:58:34.495Z,150
2017-06-24T13:59:34.197Z,150
2017-06-24T14:00:34.185Z,150
2017-06-24T14:01:34.188Z,150